createdAt,value
2022-07-29T16:00:04.803Z,41.93
2022-07-29T16:01:04.787Z,40.58
2022-07-29T16:02:04.783Z,40.17
2022-07-29T16:03:04.774Z,40.35
2022-07-29T16:04:04.764Z,40.35
2022-07-29T16:05:04.792Z,40.05
2022-07-29T16:06:04.739Z,40.45
2022-07-29T16:07:04.754Z,40.74
2022-07-29T16:08:04.720Z,41.04
2022-07-29T16:09:04.716Z,41.14
2022-07-29T16:10:04.699Z,41.14
2022-07-29T16:11:04.685Z,41.53
2022-07-29T16:12:04.684Z,41.73
2022-07-29T16:13:04.666Z,41.94
2022-07-29T16:14:04.656Z,42.14
2022-07-29T16:15:04.643Z,42.24
2022-07-29T16:16:04.626Z,42.14
2022-07-29T16:17:04.621Z,42.54
2022-07-29T16:18:04.620Z,42.63
2022-07-29T16:19:04.605Z,42.73
2022-07-29T16:20:04.585Z,42.83
2022-07-29T16:21:04.584Z,42.93
2022-07-29T16:22:04.570Z,42.81
2022-07-29T16:23:04.578Z,42.71
2022-07-29T16:24:04.557Z,42.71
2022-07-29T16:25:04.538Z,43.13
2022-07-29T16:26:04.525Z,43.23
2022-07-29T16:27:04.512Z,43.42
2022-07-29T16:28:04.502Z,43.34
2022-07-29T16:29:04.503Z,43.93
2022-07-29T16:30:04.491Z,44.06
2022-07-29T16:31:04.492Z,43.96
2022-07-29T16:32:04.471Z,43.93
2022-07-29T16:33:04.461Z,43.74
2022-07-29T16:34:04.446Z,43.74
2022-07-29T16:35:04.458Z,43.84
2022-07-29T16:36:04.419Z,43.74
2022-07-29T16:37:04.466Z,43.84
2022-07-29T16:38:04.405Z,43.84
2022-07-29T16:39:04.385Z,43.84
2022-07-29T16:40:04.373Z,44.06
2022-07-29T16:41:04.377Z,44.25
2022-07-29T16:42:04.381Z,44.15
2022-07-29T16:43:04.348Z,44.25
2022-07-29T16:44:04.336Z,44.67
2022-07-29T16:45:04.324Z,44.89
2022-07-29T16:46:04.318Z,45.28
2022-07-29T16:47:04.321Z,45.38
2022-07-29T16:48:04.293Z,45.18
2022-07-29T16:49:04.308Z,45.18
2022-07-29T16:50:04.275Z,45.28
2022-07-29T16:51:04.273Z,45.18
2022-07-29T16:52:04.244Z,45.18
2022-07-29T16:53:04.233Z,45.16
2022-07-29T16:54:04.255Z,44.96
2022-07-29T16:55:04.208Z,45.06
2022-07-29T16:56:04.216Z,45.18
2022-07-29T16:57:04.204Z,45.06
2022-07-29T16:58:04.188Z,45.06
2022-07-29T16:59:04.195Z,44.96
2022-07-29T17:00:04.163Z,45.06
2022-07-29T17:01:04.150Z,45.38
2022-07-29T17:02:04.150Z,45.57
2022-07-29T17:03:04.123Z,45.57
2022-07-29T17:04:04.115Z,45.48
2022-07-29T17:05:04.117Z,45.38
2022-07-29T17:06:04.100Z,45.38
2022-07-29T17:07:04.086Z,45.38
2022-07-29T17:08:04.082Z,45.38
2022-07-29T17:09:04.061Z,45.08
2022-07-29T17:10:04.084Z,45.08
2022-07-29T17:11:04.049Z,44.98
2022-07-29T17:12:04.034Z,44.69
2022-07-29T17:13:04.057Z,44.79
2022-07-29T17:14:04.025Z,44.79
2022-07-29T17:15:04.002Z,44.59
2022-07-29T17:16:03.995Z,44.79
2022-07-29T17:17:03.993Z,44.79
2022-07-29T17:18:03.965Z,44.59
2022-07-29T17:19:03.979Z,44.59
2022-07-29T17:20:03.997Z,44.47
2022-07-29T17:21:03.938Z,44.37
2022-07-29T17:22:03.933Z,44.27
2022-07-29T17:23:03.921Z,44.18
2022-07-29T17:24:03.929Z,44.37
2022-07-29T17:25:03.911Z,44.59
2022-07-29T17:26:03.900Z,44.49
2022-07-29T17:27:03.868Z,44.59
2022-07-29T17:28:03.858Z,44.91
2022-07-29T17:29:03.888Z,45.01
2022-07-29T17:30:03.838Z,45.3
2022-07-29T17:31:03.839Z,45.01
2022-07-29T17:32:03.821Z,45.01
2022-07-29T17:33:03.808Z,45.01
2022-07-29T17:34:03.802Z,45.1
2022-07-29T17:35:03.789Z,45.1
2022-07-29T17:36:03.782Z,45.01
2022-07-29T17:37:03.770Z,44.91
2022-07-29T17:38:03.758Z,0
2022-07-29T17:39:03.746Z,0
2022-07-29T17:40:03.737Z,0
2022-07-29T17:41:03.731Z,0
2022-07-29T17:42:03.714Z,0
2022-07-29T17:43:03.713Z,0
2022-07-29T17:44:03.694Z,0
2022-07-29T17:45:03.696Z,0
2022-07-29T17:46:03.669Z,0
2022-07-29T17:47:03.666Z,0
2022-07-29T17:48:03.650Z,0
2022-07-29T17:49:03.647Z,0
2022-07-29T17:50:03.624Z,0
2022-07-29T17:51:03.616Z,50.04
2022-07-29T17:52:03.600Z,49.94
2022-07-29T17:53:03.605Z,49.71
2022-07-29T17:54:04.585Z,49.71
2022-07-29T17:55:03.576Z,49.71
2022-07-29T17:56:03.559Z,49.71
2022-07-29T17:57:03.549Z,50.01
2022-07-29T17:58:03.545Z,49.91
2022-07-29T17:59:03.553Z,50.43
2022-07-29T18:00:03.523Z,50.83
2022-07-29T18:01:03.531Z,51.25
2022-07-29T18:02:03.548Z,51.25
2022-07-29T18:03:03.492Z,51.45
2022-07-29T18:04:03.474Z,51.75
2022-07-29T18:05:03.466Z,51.54
2022-07-29T18:06:03.463Z,51.67
2022-07-29T18:07:03.467Z,51.75
2022-07-29T18:08:03.435Z,51.75
2022-07-29T18:09:03.429Z,51.35
2022-07-29T18:10:03.420Z,51.7
2022-07-29T18:11:03.402Z,52.09
2022-07-29T18:12:03.398Z,52.31
2022-07-29T18:13:03.378Z,52.42
2022-07-29T18:14:03.370Z,52.61
2022-07-29T18:15:03.366Z,52.19
2022-07-29T18:16:03.353Z,52
2022-07-29T18:17:03.340Z,51.89
2022-07-29T18:18:03.338Z,51.57
2022-07-29T18:19:03.328Z,51.47
2022-07-29T18:20:03.314Z,51.37
2022-07-29T18:21:03.394Z,51.15
2022-07-29T18:22:04.283Z,50.95
2022-07-29T18:23:03.272Z,50.95
2022-07-29T18:24:03.267Z,51.37
2022-07-29T18:25:03.252Z,51.37
2022-07-29T18:26:03.250Z,51.7
2022-07-29T18:27:03.249Z,51.57
2022-07-29T18:28:03.223Z,51.6
2022-07-29T18:29:03.260Z,51.89
2022-07-29T18:30:03.199Z,51.89
2022-07-29T18:31:03.187Z,52
2022-07-29T18:32:03.177Z,52.22
2022-07-29T18:33:03.175Z,52.51
2022-07-29T18:34:03.166Z,52.42
2022-07-29T18:35:03.159Z,52.29
2022-07-29T18:36:03.135Z,52.72
2022-07-29T18:37:03.124Z,53.04
2022-07-29T18:38:03.107Z,53.44
2022-07-29T18:39:03.098Z,53.56
2022-07-29T18:40:03.096Z,53.76
2022-07-29T18:41:03.081Z,53.96
2022-07-29T18:42:03.073Z,54.06
2022-07-29T18:43:03.068Z,54.16
2022-07-29T18:44:03.050Z,54.16
2022-07-29T18:45:03.035Z,54.25
2022-07-29T18:46:03.108Z,54.35
2022-07-29T18:47:03.039Z,54.46
2022-07-29T18:48:03.021Z,54.66
2022-07-29T18:49:02.993Z,54.46
2022-07-29T18:50:02.988Z,54.65
2022-07-29T18:51:02.975Z,54.65
2022-07-29T18:52:02.963Z,54.75
2022-07-29T18:53:02.952Z,54.53
2022-07-29T18:54:02.938Z,54.13
2022-07-29T18:55:02.927Z,54.13
2022-07-29T18:56:02.947Z,54.13
2022-07-29T18:57:02.916Z,54.23
2022-07-29T18:58:02.901Z,54.13
2022-07-29T18:59:02.894Z,54.53
2022-07-29T19:00:02.889Z,54.63
2022-07-29T19:01:02.876Z,55.38
2022-07-29T19:02:02.856Z,56.1
2022-07-29T19:03:02.843Z,56.4
2022-07-29T19:04:02.831Z,56.4
2022-07-29T19:05:02.822Z,56.4
2022-07-29T19:06:02.833Z,56.49
2022-07-29T19:07:02.799Z,56.59
2022-07-29T19:08:02.784Z,0
2022-07-29T19:09:02.800Z,57.52
2022-07-29T19:10:02.770Z,58.24
2022-07-29T19:11:02.762Z,58.64
2022-07-29T19:12:02.751Z,58.84
2022-07-29T19:13:02.734Z,59.04
2022-07-29T19:14:02.744Z,59.14
2022-07-29T19:15:02.735Z,59.04
2022-07-29T19:16:02.705Z,59.04
2022-07-29T19:17:02.712Z,58.64
2022-07-29T19:18:02.686Z,58.81
2022-07-29T19:19:02.676Z,58.22
2022-07-29T19:20:02.668Z,58.81
2022-07-29T19:21:02.648Z,60.46
2022-07-29T19:22:02.640Z,63.68
2022-07-29T19:23:02.624Z,65.73
2022-07-29T19:24:02.612Z,66.96
2022-07-29T19:25:02.602Z,67.96
2022-07-29T19:26:02.594Z,68.46
2022-07-29T19:27:02.592Z,67.93
2022-07-29T19:28:02.567Z,68.1
2022-07-29T19:29:02.561Z,67.13
2022-07-29T19:30:02.552Z,66.34
2022-07-29T19:31:02.550Z,66.31
2022-07-29T19:32:02.529Z,65.81
2022-07-29T19:33:02.514Z,66.5
2022-07-29T19:34:02.540Z,66.8
2022-07-29T19:35:02.516Z,66.27
2022-07-29T19:36:02.490Z,65.94
2022-07-29T19:37:02.475Z,66.31
2022-07-29T19:38:02.506Z,66.31
2022-07-29T19:39:02.498Z,66.91
2022-07-29T19:40:02.455Z,67.14
2022-07-29T19:41:02.434Z,68.86
2022-07-29T19:42:02.431Z,69.09
2022-07-29T19:43:02.412Z,69.82
2022-07-29T19:44:02.400Z,70.62
2022-07-29T19:45:02.389Z,70.62
2022-07-29T19:46:02.389Z,71.19
2022-07-29T19:47:02.392Z,70.29
2022-07-29T19:48:02.361Z,70.29
2022-07-29T19:49:02.359Z,69.73
2022-07-29T19:50:02.343Z,69.92
2022-07-29T19:51:02.333Z,70.79
2022-07-29T19:52:02.360Z,69.82
2022-07-29T19:53:02.322Z,70.19
2022-07-29T19:54:02.304Z,70.12
2022-07-29T19:55:02.318Z,70.82
2022-07-29T19:56:02.278Z,71.22
2022-07-29T19:57:02.454Z,71.65
2022-07-29T19:58:02.262Z,71.95
2022-07-29T19:59:02.248Z,72.15
2022-07-29T20:00:02.232Z,71.59
2022-07-29T20:01:02.229Z,72.49
2022-07-29T20:02:02.211Z,72.81
2022-07-29T20:03:02.199Z,72.68
2022-07-29T20:04:02.194Z,72.75
2022-07-29T20:05:02.189Z,72.45
2022-07-29T20:06:02.166Z,71.42
2022-07-29T20:07:02.163Z,72.11
2022-07-29T20:08:02.148Z,71.62
2022-07-29T20:09:02.134Z,71.62
2022-07-29T20:10:02.130Z,70.82
2022-07-29T20:11:02.113Z,71.02
2022-07-29T20:12:02.108Z,70.72
2022-07-29T20:13:02.090Z,71.02
2022-07-29T20:14:02.079Z,70.72
2022-07-29T20:15:02.075Z,70.56
2022-07-29T20:16:02.086Z,70.59
2022-07-29T20:17:02.136Z,71.12
2022-07-29T20:18:03.063Z,71.95
2022-07-29T20:19:02.049Z,72.35
2022-07-29T20:20:03.021Z,72.12
2022-07-29T20:21:02.008Z,71.72
2022-07-29T20:22:02.008Z,71.56
2022-07-29T20:23:02.146Z,71.79
2022-07-29T20:24:01.971Z,71.49
2022-07-29T20:25:01.967Z,71.92
2022-07-29T20:26:01.963Z,72.22
2022-07-29T20:27:01.938Z,72.02
2022-07-29T20:28:01.944Z,72.72
2022-07-29T20:29:01.922Z,71.33
2022-07-29T20:30:01.911Z,71.72
2022-07-29T20:31:01.904Z,70.49
2022-07-29T20:32:01.889Z,70.09
2022-07-29T20:33:01.878Z,69.82
2022-07-29T20:34:01.866Z,72.52
2022-07-29T20:35:01.857Z,71.49
2022-07-29T20:36:01.843Z,73.63
2022-07-29T20:37:01.834Z,74.22
2022-07-29T20:38:01.824Z,74.96
2022-07-29T20:39:01.830Z,75.37
2022-07-29T20:40:01.808Z,76.06
2022-07-29T20:41:01.789Z,75.96
2022-07-29T20:42:01.783Z,75.46
2022-07-29T20:43:01.892Z,75.16
2022-07-29T20:44:01.782Z,75.67
2022-07-29T20:45:01.765Z,75.26
2022-07-29T20:46:01.734Z,75.43
2022-07-29T20:47:01.729Z,75.23
2022-07-29T20:48:01.713Z,74.09
2022-07-29T20:49:01.707Z,73.29
2022-07-29T20:50:01.718Z,73.59
2022-07-29T20:51:01.688Z,72.99
2022-07-29T20:52:01.685Z,72.79
2022-07-29T20:53:01.661Z,72.39
2022-07-29T20:54:01.664Z,72.06
2022-07-29T20:55:01.645Z,71.22
2022-07-29T20:56:01.641Z,70.69
2022-07-29T20:57:01.613Z,70.95
2022-07-29T20:58:01.606Z,71.12
2022-07-29T20:59:01.595Z,72.12
2022-07-29T21:00:01.589Z,73.02
2022-07-29T21:01:01.592Z,73.18
2022-07-29T21:02:01.570Z,72.88
2022-07-29T21:03:01.551Z,72.28
2022-07-29T21:04:01.549Z,72.38
2022-07-29T21:05:01.529Z,72.49
2022-07-29T21:06:01.522Z,73.02
2022-07-29T21:07:01.521Z,73.18
2022-07-29T21:08:01.509Z,73.08
2022-07-29T21:09:01.489Z,73.28
2022-07-29T21:10:01.480Z,73.52
2022-07-29T21:11:01.476Z,73.72
2022-07-29T21:12:01.459Z,73.82
2022-07-29T21:13:01.470Z,74.95
2022-07-29T21:14:01.440Z,75.59
2022-07-29T21:15:01.427Z,76.28
2022-07-29T21:16:01.414Z,77.42
2022-07-29T21:17:01.399Z,76.42
2022-07-29T21:18:01.385Z,76.45
2022-07-29T21:19:01.398Z,77.06
2022-07-29T21:20:01.374Z,76.29
2022-07-29T21:21:01.358Z,78.23
2022-07-29T21:22:01.345Z,78.67
2022-07-29T21:23:01.333Z,78.49
2022-07-29T21:24:01.324Z,77.29
2022-07-29T21:25:01.328Z,77.79
2022-07-29T21:26:01.323Z,76.99
2022-07-29T21:27:01.292Z,77.29
2022-07-29T21:28:01.282Z,77.89
2022-07-29T21:29:01.269Z,77.59
2022-07-29T21:30:01.261Z,77.93
2022-07-29T21:31:01.254Z,77.56
2022-07-29T21:32:01.261Z,76.82
2022-07-29T21:33:01.236Z,75.98
2022-07-29T21:34:01.287Z,74.85
2022-07-29T21:35:01.204Z,74.51
2022-07-29T21:36:01.197Z,73.32
2022-07-29T21:37:01.187Z,73.72
2022-07-29T21:38:01.188Z,73.78
2022-07-29T21:39:01.181Z,73.38
2022-07-29T21:40:01.164Z,73.38
2022-07-29T21:41:01.140Z,73.02
2022-07-29T21:42:01.135Z,74.25
2022-07-29T21:43:01.124Z,75.68
2022-07-29T21:44:01.111Z,75.35
2022-07-29T21:45:01.103Z,75.89
2022-07-29T21:46:01.099Z,75.38
2022-07-29T21:47:01.077Z,76.69
2022-07-29T21:48:01.089Z,79.77
2022-07-29T21:49:01.072Z,81.45
2022-07-29T21:50:01.051Z,83.13
2022-07-29T21:51:01.031Z,83.65
2022-07-29T21:52:01.031Z,82.01
2022-07-29T21:53:01.023Z,82.91
2022-07-29T21:54:01.022Z,81.91
2022-07-29T21:55:01.002Z,81.61
2022-07-29T21:56:00.981Z,81.51
2022-07-29T21:57:00.987Z,81.33
2022-07-29T21:58:00.962Z,79.63
2022-07-29T21:59:00.969Z,79.97
2022-07-29T22:00:00.938Z,80.8
2022-07-29T22:01:00.933Z,81.41
2022-07-29T22:02:00.922Z,80.47
2022-07-29T22:03:00.910Z,80.87
2022-07-29T22:04:00.901Z,80.03
2022-07-29T22:05:00.889Z,80.53
2022-07-29T22:06:00.877Z,81.07
2022-07-29T22:07:00.873Z,81.37
2022-07-29T22:08:00.851Z,80.47
2022-07-29T22:09:00.851Z,81.01
2022-07-29T22:10:00.829Z,82.09
2022-07-29T22:11:00.819Z,83.45
2022-07-29T22:12:00.832Z,82.65
2022-07-29T22:13:00.810Z,83.45
2022-07-29T22:14:00.786Z,82.61
2022-07-29T22:15:00.774Z,82.51
2022-07-29T22:16:00.765Z,82.61
2022-07-29T22:17:00.757Z,82.15
2022-07-29T22:18:00.763Z,82.65
2022-07-29T22:19:00.789Z,83.35
2022-07-29T22:20:00.726Z,83.11
2022-07-29T22:21:00.709Z,81.57
2022-07-29T22:22:00.770Z,80.33
2022-07-29T22:23:00.726Z,79.59
2022-07-29T22:24:00.689Z,78.89
2022-07-29T22:25:00.662Z,78.75
2022-07-29T22:26:00.652Z,77.86
2022-07-29T22:27:00.647Z,77.25
2022-07-29T22:28:00.642Z,77.56
2022-07-29T22:29:00.633Z,77.95
2022-07-29T22:30:00.636Z,78.02
2022-07-29T22:31:00.630Z,77.28
2022-07-29T22:32:00.595Z,76.58
2022-07-29T22:33:00.586Z,75.78
2022-07-29T22:34:00.570Z,76.18
2022-07-29T22:35:00.570Z,76.72
2022-07-29T22:36:00.556Z,77.45
2022-07-29T22:37:00.564Z,77.29
2022-07-29T22:38:00.521Z,78.23
2022-07-29T22:39:00.528Z,79.97
2022-07-29T22:40:00.508Z,78.86
2022-07-29T22:41:00.497Z,78.83
2022-07-29T22:42:00.498Z,77.59
2022-07-29T22:43:00.509Z,76.83
2022-07-29T22:44:00.462Z,77.63
2022-07-29T22:45:00.465Z,77.53
2022-07-29T22:46:00.439Z,78.43
2022-07-29T22:47:00.433Z,79.13
2022-07-29T22:48:00.415Z,78.97
2022-07-29T22:49:00.408Z,79.8
2022-07-29T22:50:00.397Z,80.65
2022-07-29T22:51:00.387Z,81.24
2022-07-29T22:52:00.373Z,80.51
2022-07-29T22:53:00.395Z,80.27
2022-07-29T22:54:00.350Z,79.27
2022-07-29T22:55:00.342Z,78.83
2022-07-29T22:56:00.326Z,78.99
2022-07-29T22:57:00.328Z,78.25
2022-07-29T22:58:00.310Z,77.86
2022-07-29T22:59:00.302Z,77.92
2022-07-29T23:00:00.290Z,77.32
2022-07-29T23:01:00.297Z,77.18
2022-07-29T23:02:00.272Z,76.58
2022-07-29T23:03:00.266Z,75.89
2022-07-29T23:04:00.249Z,75.55
2022-07-29T23:05:00.239Z,75.95
2022-07-29T23:06:00.228Z,76.28
2022-07-29T23:07:00.220Z,76.58
2022-07-29T23:08:00.200Z,77.12
2022-07-29T23:09:00.189Z,76.88
2022-07-29T23:10:00.183Z,76.04
2022-07-29T23:11:00.171Z,75.21
2022-07-29T23:12:00.157Z,75.21
2022-07-29T23:13:00.149Z,75.11
2022-07-29T23:14:00.138Z,74.41
2022-07-29T23:15:00.134Z,74.41
2022-07-29T23:16:00.118Z,74.51
2022-07-29T23:17:00.118Z,74.21
2022-07-29T23:18:00.097Z,73.82
2022-07-29T23:19:00.078Z,73.72
2022-07-29T23:20:00.078Z,74.48
2022-07-29T23:21:00.059Z,74.32
2022-07-29T23:22:00.049Z,73.75
2022-07-29T23:23:00.052Z,73.92
2022-07-29T23:24:00.028Z,74.46
2022-07-29T23:25:00.017Z,75.19
2022-07-29T23:26:00.004Z,76.23
2022-07-29T23:26:59.993Z,77.56
2022-07-29T23:27:59.988Z,78.5
2022-07-29T23:28:59.989Z,78.8
2022-07-29T23:29:59.968Z,79.27
2022-07-29T23:30:59.961Z,79.41
2022-07-29T23:31:59.955Z,79.5
2022-07-29T23:32:59.938Z,80.04
2022-07-29T23:33:59.924Z,80.44
2022-07-29T23:34:59.950Z,80.71
2022-07-29T23:35:59.912Z,80.61
2022-07-29T23:36:59.887Z,80.51
2022-07-29T23:37:59.873Z,80.3
2022-07-29T23:38:59.869Z,80.21
2022-07-29T23:39:59.876Z,79.67
2022-07-29T23:40:59.846Z,79.36
2022-07-29T23:41:59.851Z,78.86
2022-07-29T23:42:59.826Z,78.7
2022-07-29T23:43:59.813Z,78.91
2022-07-29T23:44:59.803Z,78.91
2022-07-29T23:45:59.801Z,79.04
2022-07-29T23:46:59.785Z,79.44
2022-07-29T23:47:59.790Z,79.54
2022-07-29T23:48:59.760Z,79.64
2022-07-29T23:49:59.761Z,79.88
2022-07-29T23:50:59.744Z,80.08
2022-07-29T23:51:59.728Z,80.24
2022-07-29T23:52:59.718Z,80.04
2022-07-29T23:53:59.714Z,79.94
2022-07-29T23:54:59.699Z,79.74
2022-07-29T23:55:59.689Z,80.15
2022-07-29T23:56:59.684Z,80.54
2022-07-29T23:57:59.664Z,80.15
2022-07-29T23:58:59.655Z,80.21
2022-07-29T23:59:59.642Z,80
